• Join FlightAware (Why Join?)
  • Login
  • US Flag 
12:56PM EDT


 

Airport Tracker/Info


-or-


 

Live Flight TrackerFlight Track Log ✈ N6101G ✈ 11-Jul-2014 ✈ KACK - KCLT

Flight Track Log - Related Links

Times and Time Zones

All times are in EDT time to prevent confusion due to time zone crossing. See the N6101G flight status page for this flight to view local times or setup timezone preferences in your user account.

Time Position Orientation Groundspeed Altitude Reporting Facility
EDT Latitude Longitude Course Direction KTS MPH feet Rate Location/Type
04:29PM 41.3181 -70.0572 North 140 161 2,200  Level Boston Center
04:30PM 41.3628 -70.0594 358° North 151 174 3,500 1,260 Climbing Boston Center
04:31PM 41.4067 -70.0581 North 155 178 4,900 1,320 Climbing Boston Center
04:32PM 41.4567 -70.0553 North 155 178 6,300 1,200 Climbing Boston Center
04:33PM 41.5017 -70.0533 North 155 178 7,500 1,080 Climbing Boston Center
04:34PM 41.6181 -70.0403 North  Level FlightAware Approximate
04:34PM 41.5497 -70.0528 360° North 168 193 8,600  Level Boston Center
04:35PM 41.6792 -70.0333 North  Level FlightAware Approximate
04:35PM 41.5983 -70.0508 North 172 198 9,700  Level Boston Center
04:36PM 41.6456 -70.0497 North 172 198 10,700 840 Climbing Boston Center
04:38PM 41.6341 -70.1161 257° West  Level FlightAware Approximate
04:39PM 41.7478 -70.0458 257° West 183 211 12,500  Level Boston Center
04:40PM 41.8092 -70.0453 360° North 184 212 13,600 840 Climbing Boston Center
04:41PM 41.8083 -70.0992 269° West 174 200 14,300 720 Climbing Boston Center
04:42PM 41.7844 -70.1550 240° Southwest 174 200 15,200 720 Climbing Boston Center
04:43PM 41.7608 -70.2106 240° Southwest 174 200 15,900 900 Climbing Boston Center
04:44PM 41.7367 -70.2664 240° Southwest 174 200 17,100 960 Climbing Boston Center
04:45PM 41.7136 -70.3225 241° Southwest 173 199 18,000 960 Climbing Boston Center
04:46PM 41.6861 -70.3869 240° Southwest 176 203 19,100 1,020 Climbing Boston Center
04:47PM 41.6600 -70.4456 239° Southwest 180 207 20,200 960 Climbing Boston Center
04:48PM 41.6303 -70.5072 237° Southwest 181 208 21,200 900 Climbing Boston Center
04:49PM 41.5994 -70.5639 234° Southwest 184 212 22,100 780 Climbing Boston Center
04:50PM 41.5681 -70.6219 234° Southwest 189 217 22,900 780 Climbing Boston Center
04:51PM 41.5367 -70.6794 234° Southwest 189 217 23,800 780 Climbing Boston Center
04:52PM 41.5067 -70.7381 236° Southwest 189 217 24,500 720 Climbing Boston Center
04:53PM 41.4756 -70.7958 234° Southwest 190 219 25,300 780 Climbing Boston Center
04:54PM 41.4372 -70.8658 234° Southwest 191 220 26,200 720 Climbing Boston Center
04:55PM 41.4083 -70.9211 235° Southwest 186 214 26,900 720 Climbing Boston Center
04:56PM 41.3778 -70.9753 233° Southwest 185 213 27,800 540 Climbing Boston Center
04:57PM 41.3478 -71.0325 235° Southwest 186 214 28,000 60 Climbing Boston Center
04:58PM 41.3136 -71.0953 234° Southwest 202 232 28,000  Level Boston Center
04:59PM 41.2778 -71.1606 234° Southwest 213 245 28,000  Level Boston Center
05:00PM 41.2444 -71.2225 234° Southwest 212 244 28,000  Level Boston Center
05:01PM 41.2056 -71.2953 235° Southwest 206 237 28,000  Level Boston Center
05:02PM 41.1722 -71.3544 233° Southwest 204 235 28,000  Level Boston Center
05:03PM 41.1397 -71.4136 234° Southwest 202 232 28,000  Level Boston Center
05:04PM 41.1072 -71.4739 234° Southwest 202 232 28,000  Level Boston Center
05:05PM 41.0739 -71.5319 233° Southwest 202 232 28,000  Level Boston Center
05:06PM 41.0367 -71.5983 233° Southwest 202 232 28,000  Level Boston Center
05:07PM 41.0044 -71.6581 234° Southwest 201 231 28,000  Level Boston Center
05:08PM 40.9689 -71.7236 234° Southwest 201 231 28,000  Level Boston Center
05:09PM 40.9358 -71.7828 234° Southwest 201 231 28,000  Level Boston Center
05:10PM 40.9017 -71.8417 233° Southwest 202 232 28,000  Level Boston Center
05:11PM 40.8675 -71.9025 233° Southwest 202 232 28,000  Level Boston Center
05:13PM 40.8339 -71.9628 234° Southwest 203 234 28,000  Level Boston Center
05:14PM 40.8011 -72.0225 234° Southwest 202 232 28,000  Level Boston Center
05:15PM 40.7603 -72.0956 234° Southwest 203 234 28,000  Level Boston Center
05:16PM 40.7256 -72.1558 233° Southwest 203 234 28,000  Level Boston Center
05:17PM 40.6925 -72.2164 234° Southwest 203 234 28,000  Level Boston Center
05:18PM 40.6578 -72.2764 233° Southwest 203 234 28,000  Level Boston Center
05:19PM 40.6242 -72.3367 234° Southwest 204 235 28,000  Level Boston Center
05:20PM 40.5903 -72.3961 233° Southwest 204 235 28,000  Level Boston Center
05:21PM 40.5558 -72.4569 233° Southwest 204 235 28,000  Level Boston Center
05:22PM 40.5222 -72.5175 234° Southwest 204 235 28,000  Level Boston Center
05:23PM 40.4803 -72.5892 232° Southwest 205 236 28,000  Level Boston Center
05:24PM 40.4467 -72.6500 234° Southwest 205 236 28,000  Level Boston Center
05:25PM 40.4122 -72.7097 233° Southwest 205 236 28,000  Level Boston Center
05:26PM 40.3772 -72.7703 233° Southwest 206 237 28,000  Level Boston Center
05:27PM 40.3431 -72.8308 234° Southwest 206 237 28,000  Level Boston Center
05:28PM 40.3078 -72.8914 233° Southwest 207 238 28,000  Level Boston Center
05:29PM 40.2650 -72.9653 233° Southwest 208 239 28,000  Level Boston Center
05:31PM 40.1914 -73.0903 232° Southwest 209 241 28,000  Level Washington Center
05:32PM 40.1572 -73.1514 234° Southwest 209 241 28,000  Level Washington Center
05:33PM 40.1192 -73.2150 232° Southwest 215 247 28,000  Level Washington Center
05:34PM 40.0828 -73.2731 231° Southwest 215 247 28,000  Level Washington Center
05:35PM 40.0358 -73.3261 221° Southwest 215 247 28,000  Level Washington Center
05:36PM 39.9867 -73.3764 218° Southwest 220 253 28,000  Level Washington Center
05:37PM 39.9419 -73.4292 222° Southwest 220 253 28,000  Level Washington Center
05:38PM 39.8969 -73.4819 222° Southwest 220 253 28,000  Level Washington Center
05:39PM 39.8478 -73.5322 218° Southwest 225 259 28,000  Level Washington Center
05:40PM 39.8028 -73.5847 222° Southwest 225 259 28,000  Level Washington Center
05:41PM 39.7558 -73.6400 222° Southwest 225 259 28,000  Level Washington Center
05:42PM 39.7089 -73.6925 221° Southwest 225 259 28,000  Level Washington Center
05:43PM 39.6617 -73.7425 219° Southwest 225 259 28,000  Level Washington Center
05:44PM 39.6144 -73.7947 220° Southwest 225 259 28,000  Level Washington Center
05:45PM 39.5675 -73.8472 221° Southwest 225 259 28,000  Level Washington Center
05:46PM 39.5181 -73.8994 219° Southwest 225 259 28,000  Level Washington Center
05:47PM 39.4731 -73.9489 220° Southwest 225 259 28,000  Level Washington Center
05:48PM 39.4236 -74.0011 219° Southwest 225 259 28,000  Level Washington Center
05:49PM 39.3786 -74.0531 222° Southwest 225 259 28,000  Level Washington Center
05:50PM 39.3292 -74.1078 221° Southwest 225 259 28,000  Level Washington Center
05:51PM 39.2797 -74.1597 219° Southwest 225 259 28,000  Level Washington Center
05:52PM 39.2344 -74.2117 222° Southwest 225 259 28,000  Level Washington Center
05:53PM 39.1831 -74.2661 219° Southwest 230 265 28,000  Level Washington Center
05:54PM 39.1378 -74.3178 222° Southwest 230 265 28,000  Level Washington Center
05:55PM 39.0883 -74.3694 219° Southwest 230 265 28,000  Level Washington Center
05:56PM 39.0408 -74.4211 220° Southwest 225 259 28,000  Level Washington Center
05:57PM 38.9933 -74.4753 222° Southwest 225 259 28,000  Level Washington Center
05:58PM 38.9439 -74.5267 219° Southwest 225 259 28,000  Level Washington Center
05:59PM 38.8983 -74.5728 218° Southwest 225 259 28,000  Level Washington Center
06:00PM 38.8508 -74.6267 221° Southwest 230 265 28,000  Level Washington Center
06:01PM 38.8056 -74.6753 220° Southwest 225 259 28,000  Level Washington Center
06:02PM 38.7578 -74.7264 220° Southwest 230 265 28,000  Level Washington Center
06:03PM 38.7083 -74.7803 220° Southwest 230 265 28,000  Level Washington Center
06:04PM 38.6669 -74.8233 219° Southwest 225 259 28,000  Level Washington Center
06:05PM 38.6192 -74.8742 220° Southwest 225 259 28,000  Level Washington Center
06:06PM 38.5717 -74.9278 221° Southwest 230 265 28,000  Level Washington Center
06:07PM 38.5239 -74.9733 217° Southwest 230 265 28,000  Level Washington Center
06:08PM 38.4761 -75.0242 220° Southwest 225 259 28,000  Level Washington Center
06:09PM 38.4283 -75.0750 220° Southwest 225 259 28,000  Level Washington Center
06:10PM 38.3786 -75.1256 219° Southwest 225 259 28,000  Level Washington Center
06:11PM 38.3308 -75.1736 218° Southwest 230 265 28,000  Level Washington Center
06:12PM 38.2831 -75.2425 229° Southwest 230 265 28,000  Level Washington Center
06:13PM 38.2353 -75.2931 220° Southwest 230 265 28,000  Level Washington Center
06:14PM 38.1917 -75.3514 226° Southwest 230 265 28,000  Level Washington Center
06:15PM 38.1481 -75.4017 222° Southwest 225 259 28,000  Level Washington Center
06:16PM 38.1000 -75.4519 219° Southwest 225 259 28,000  Level Washington Center
06:17PM 38.0500 -75.5022 218° Southwest 225 259 28,000  Level Washington Center
06:18PM 38.0064 -75.5603 226° Southwest 230 265 28,000  Level Washington Center
06:19PM 37.9603 -75.6156 223° Southwest 235 270 28,000  Level Washington Center
06:20PM 37.9144 -75.6681 222° Southwest 235 270 28,000  Level Washington Center
06:21PM 37.8706 -75.7233 225° Southwest 235 270 28,000  Level Washington Center
06:22PM 37.8228 -75.7706 218° Southwest 235 270 28,000  Level Washington Center
06:23PM 37.7872 -75.8153 225° Southwest 235 270 28,000  Level Washington Center
06:24PM 37.7306 -75.8806 222° Southwest 230 265 28,000  Level Washington Center
06:25PM 37.6847 -75.9328 222° Southwest 230 265 28,000  Level Washington Center
06:26PM 37.6386 -75.9825 221° Southwest 230 265 28,000  Level Washington Center
06:27PM 37.5925 -76.0347 222° Southwest 230 265 28,000  Level Washington Center
06:28PM 37.5464 -76.0869 222° Southwest 230 265 28,000  Level Washington Center
06:29PM 37.5025 -76.1389 223° Southwest 224 258 28,000  Level Washington Center
06:30PM 37.4583 -76.1806 217° Southwest 224 258 28,000  Level Washington Center
06:31PM 37.4122 -76.2325 222° Southwest 224 258 28,000  Level Washington Center
06:32PM 37.3661 -76.2844 222° Southwest 224 258 28,000  Level Washington Center
06:33PM 37.3219 -76.3361 223° Southwest 224 258 28,000  Level Washington Center
06:34PM 37.2758 -76.3853 220° Southwest 224 258 28,000  Level Washington Center
06:35PM 37.2294 -76.4369 222° Southwest 219 252 28,000  Level Washington Center
06:36PM 37.1853 -76.4886 223° Southwest 219 252 28,000  Level Washington Center
06:37PM 37.1392 -76.5375 220° Southwest 219 252 28,000  Level Washington Center
06:38PM 37.0969 -76.5892 224° Southwest 219 252 28,000  Level Washington Center
06:39PM 37.0506 -76.6381 220° Southwest 219 252 28,000 -360 Level Washington Center
06:40PM 37.0044 -76.6894 222° Southwest 219 252 27,300 -960 Descending Washington Center
06:41PM 36.9536 -76.7458 222° Southwest 230 265 26,100 -1,260 Descending Washington Center
06:42PM 36.9031 -76.8050 223° Southwest 241 277 24,900 -1,440 Descending Washington Center
06:43PM 36.8525 -76.8586 220° Southwest 247 284 23,300 -1,380 Descending Washington Center
06:44PM 36.8017 -76.9147 221° Southwest 247 284 22,200 -660 Descending Washington Center
06:45PM 36.7553 -76.9658 221° Southwest 237 273 22,000 -120 Descending Washington Center
06:46PM 36.7108 -77.0169 223° Southwest 232 267 22,000  Level Washington Center
06:47PM 36.6767 -77.0783 235° Southwest 221 254 22,000  Level Washington Center
06:48PM 36.6467 -77.1453 241° Southwest 221 254 22,000  Level Washington Center
06:49PM 36.6189 -77.2094 242° Southwest 221 254 22,000  Level Washington Center
06:50PM 36.5886 -77.2733 239° Southwest 221 254 22,000  Level Washington Center
06:51PM 36.5606 -77.3375 241° Southwest 221 254 22,000  Level Washington Center
06:52PM 36.5283 -77.4014 238° Southwest 221 254 22,000  Level Washington Center
06:53PM 36.5003 -77.4653 241° Southwest 221 254 22,000  Level Washington Center
06:54PM 36.4700 -77.5292 240° Southwest 221 254 22,000  Level Washington Center
06:55PM 36.4419 -77.5931 241° Southwest 221 254 22,000  Level Washington Center
06:56PM 36.4136 -77.6644 244° Southwest 221 254 22,000  Level Washington Center
06:57PM 36.3811 -77.7308 239° Southwest 221 254 22,000  Level Washington Center
06:58PM 36.3508 -77.7944 239° Southwest 226 260 22,000  Level Washington Center
06:59PM 36.3203 -77.8606 240° Southwest 221 254 22,000  Level Washington Center
07:00PM 36.3022 -77.9269 251° West 221 254 22,000  Level Washington Center
07:01PM 36.2925 -77.9989 261° West 216 249 22,000 -60 Level Washington Center
07:02PM 36.2847 -78.0708 262° West 216 249 21,900 -360 Descending Washington Center
07:03PM 36.2772 -78.1403 262° West 216 249 21,300 -600 Descending Washington Center
07:04PM 36.2694 -78.2119 262° West 216 249 20,700 -600 Descending Washington Center
07:05PM 36.2617 -78.2786 262° West 216 249 20,100 -600 Descending Washington Center
07:06PM 36.2517 -78.3481 260° West 211 243 19,500 -660 Descending Washington Center
07:07PM 36.2461 -78.4122 264° West 206 237 18,900 -660 Descending Washington Center
07:08PM 36.2361 -78.4761 259° West 199 229 18,300 -540 Descending Washington Center
07:09PM 36.2283 -78.5350 261° West 191 220 17,900 -540 Descending Washington Center
07:10PM 36.2206 -78.6044 262° West 191 220 17,300 -660 Descending Washington Center
07:11PM 36.2128 -78.6633 261° West 191 220 16,700 -660 Descending Washington Center
07:12PM 36.2044 -78.7350 262° West 191 220 16,100 -360 Descending Washington Center
07:13PM 36.1944 -78.7989 259° West 196 226 16,000 -60 Descending Washington Center
07:14PM 36.1886 -78.8606 263° West 201 231 16,000  Level Washington Center
07:15PM 36.1803 -78.9372 262° West 201 231 16,000 -180 Level Washington Center
07:16PM 36.1722 -79.0014 261° West 201 231 15,700 -480 Descending Washington Center
07:17PM 36.1617 -79.0756 260° West 201 231 15,100 -660 Descending Washington Center
07:18PM 36.1533 -79.1444 261° West 201 231 14,500 -420 Descending Washington Center
07:35PM 35.8192 -80.2128 230° Southwest 208 239 8,400 -420 Descending Atlanta Center
07:36PM 35.8044 -80.2775 254° West 193 222 8,000 -480 Descending Atlanta Center
07:37PM 35.7919 -80.3394 256° West 181 208 7,500 -780 Descending Atlanta Center
07:38PM 35.7747 -80.3964 250° West 175 201 6,500 -780 Descending Atlanta Center
07:39PM 35.7536 -80.4589 247° West 195 224 6,000 -300 Descending Atlanta Center
07:40PM 35.7258 -80.5114 237° Southwest 196 226 6,000  Level Atlanta Center
07:41PM 35.6767 -80.5414 206° Southwest 191 220 6,000  Level Atlanta Center
07:42PM 35.6256 -80.5769 209° Southwest 183 211 6,000  Level Atlanta Center
07:43PM 35.5847 -80.6067 211° Southwest 181 208 6,000  Level Atlanta Center
07:44PM 35.5375 -80.6367 207° Southwest 181 208 6,000  Level Atlanta Center
07:45PM 35.4947 -80.6692 212° Southwest 182 209 6,000 -60 Level Atlanta Center
07:46PM 35.4517 -80.6989 209° Southwest 182 209 5,900 -480 Descending Atlanta Center
07:47PM 35.4067 -80.7289 209° Southwest 180 207 5,100 -780 Descending Atlanta Center
07:48PM 35.3617 -80.7611 210° Southwest 179 206 4,400 -840 Descending Atlanta Center
07:49PM 35.3208 -80.7958 215° Southwest 175 201 3,500 -600 Descending Atlanta Center
07:50PM 35.2925 -80.8378 230° Southwest 157 181 3,200 -660 Descending Atlanta Center
07:51PM 35.2664 -80.8717 227° Southwest 138 159 2,200 -900 Descending Atlanta Center
07:52PM 35.2403 -80.9083 229° Southwest 140 161 1,400 -840 Descending Atlanta Center